sensor_id;sensor_type;location;lat;lon;timestamp;P1;durP1;ratioP1;P2;durP2;ratioP2
68010;SDS011;54794;48.348;7.878;2023-04-01T00:01:48;1.35;;;0.10;;
68010;SDS011;54794;48.348;7.878;2023-04-01T00:04:15;0.28;;;0.20;;
68010;SDS011;54794;48.348;7.878;2023-04-01T00:06:42;0.30;;;0.20;;
68010;SDS011;54794;48.348;7.878;2023-04-01T00:09:09;0.32;;;0.20;;
68010;SDS011;54794;48.348;7.878;2023-04-01T00:11:36;1.38;;;0.30;;
68010;SDS011;54794;48.348;7.878;2023-04-01T00:14:02;1.13;;;0.10;;
68010;SDS011;54794;48.348;7.878;2023-04-01T00:16:30;0.05;;;0.00;;
68010;SDS011;54794;48.348;7.878;2023-04-01T00:18:57;0.10;;;0.10;;
68010;SDS011;54794;48.348;7.878;2023-04-01T00:21:24;0.10;;;0.10;;
68010;SDS011;54794;48.348;7.878;2023-04-01T00:23:51;0.65;;;0.10;;
68010;SDS011;54794;48.348;7.878;2023-04-01T00:26:18;0.28;;;0.08;;
68010;SDS011;54794;48.348;7.878;2023-04-01T00:28:48;0.20;;;0.08;;
68010;SDS011;54794;48.348;7.878;2023-04-01T00:33:43;0.10;;;0.00;;
68010;SDS011;54794;48.348;7.878;2023-04-01T00:38:45;0.10;;;0.00;;
68010;SDS011;54794;48.348;7.878;2023-04-01T00:41:13;0.88;;;0.10;;
68010;SDS011;54794;48.348;7.878;2023-04-01T00:43:43;0.00;;;0.00;;
68010;SDS011;54794;48.348;7.878;2023-04-01T00:46:14;0.47;;;0.10;;
68010;SDS011;54794;48.348;7.878;2023-04-01T00:48:43;0.03;;;0.00;;
68010;SDS011;54794;48.348;7.878;2023-04-01T00:51:34;0.50;;;0.10;;
68010;SDS011;54794;48.348;7.878;2023-04-01T00:54:05;0.25;;;0.10;;
68010;SDS011;54794;48.348;7.878;2023-04-01T00:56:35;0.25;;;0.10;;
68010;SDS011;54794;48.348;7.878;2023-04-01T00:59:08;0.20;;;0.10;;
68010;SDS011;54794;48.348;7.878;2023-04-01T01:01:42;1.13;;;0.10;;
68010;SDS011;54794;48.348;7.878;2023-04-01T01:04:22;0.32;;;0.20;;
68010;SDS011;54794;48.348;7.878;2023-04-01T01:15:24;1.23;;;0.10;;
68010;SDS011;54794;48.348;7.878;2023-04-01T01:32:49;0.93;;;0.40;;
68010;SDS011;54794;48.348;7.878;2023-04-01T01:35:53;0.38;;;0.10;;
68010;SDS011;54794;48.348;7.878;2023-04-01T01:38:26;0.35;;;0.10;;
68010;SDS011;54794;48.348;7.878;2023-04-01T01:40:58;0.68;;;0.08;;
68010;SDS011;54794;48.348;7.878;2023-04-01T01:43:32;1.75;;;0.20;;
68010;SDS011;54794;48.348;7.878;2023-04-01T01:46:06;0.55;;;0.15;;
68010;SDS011;54794;48.348;7.878;2023-04-01T01:48:42;2.20;;;0.10;;
68010;SDS011;54794;48.348;7.878;2023-04-01T01:51:11;0.25;;;0.10;;
68010;SDS011;54794;48.348;7.878;2023-04-01T01:53:39;0.30;;;0.15;;
68010;SDS011;54794;48.348;7.878;2023-04-01T01:56:06;1.45;;;0.20;;
68010;SDS011;54794;48.348;7.878;2023-04-01T01:58:38;1.05;;;0.20;;
68010;SDS011;54794;48.348;7.878;2023-04-01T02:01:13;1.45;;;0.22;;
68010;SDS011;54794;48.348;7.878;2023-04-01T02:03:46;0.60;;;0.10;;
68010;SDS011;54794;48.348;7.878;2023-04-01T02:06:15;0.88;;;0.20;;
68010;SDS011;54794;48.348;7.878;2023-04-01T02:08:49;0.40;;;0.10;;
68010;SDS011;54794;48.348;7.878;2023-04-01T02:11:22;0.90;;;0.20;;
68010;SDS011;54794;48.348;7.878;2023-04-01T02:14:00;0.75;;;0.10;;
68010;SDS011;54794;48.348;7.878;2023-04-01T02:16:35;0.70;;;0.20;;
68010;SDS011;54794;48.348;7.878;2023-04-01T02:19:08;1.85;;;0.35;;
68010;SDS011;54794;48.348;7.878;2023-04-01T02:21:39;1.17;;;0.20;;
68010;SDS011;54794;48.348;7.878;2023-04-01T02:24:10;0.77;;;0.20;;
68010;SDS011;54794;48.348;7.878;2023-04-01T02:26:41;1.50;;;0.30;;
68010;SDS011;54794;48.348;7.878;2023-04-01T02:29:11;2.45;;;0.20;;
68010;SDS011;54794;48.348;7.878;2023-04-01T02:34:07;1.35;;;0.30;;
68010;SDS011;54794;48.348;7.878;2023-04-01T02:39:03;1.52;;;0.30;;
68010;SDS011;54794;48.348;7.878;2023-04-01T02:41:31;2.22;;;0.40;;
68010;SDS011;54794;48.348;7.878;2023-04-01T02:44:06;1.08;;;0.30;;
68010;SDS011;54794;48.348;7.878;2023-04-01T02:46:33;1.48;;;0.55;;
68010;SDS011;54794;48.348;7.878;2023-04-01T02:49:00;2.80;;;0.50;;
68010;SDS011;54794;48.348;7.878;2023-04-01T02:51:27;2.28;;;0.40;;
68010;SDS011;54794;48.348;7.878;2023-04-01T02:53:56;2.47;;;0.40;;
68010;SDS011;54794;48.348;7.878;2023-04-01T02:56:23;2.05;;;0.43;;
68010;SDS011;54794;48.348;7.878;2023-04-01T02:58:52;3.80;;;0.93;;
68010;SDS011;54794;48.348;7.878;2023-04-01T03:01:20;1.20;;;0.50;;
68010;SDS011;54794;48.348;7.878;2023-04-01T03:03:48;3.35;;;0.52;;
68010;SDS011;54794;48.348;7.878;2023-04-01T03:06:15;3.67;;;0.52;;
68010;SDS011;54794;48.348;7.878;2023-04-01T03:08:43;2.90;;;0.60;;
68010;SDS011;54794;48.348;7.878;2023-04-01T03:11:11;2.90;;;0.57;;
68010;SDS011;54794;48.348;7.878;2023-04-01T03:13:39;3.97;;;0.50;;
68010;SDS011;54794;48.348;7.878;2023-04-01T03:16:06;1.52;;;0.43;;
68010;SDS011;54794;48.348;7.878;2023-04-01T03:18:33;0.95;;;0.25;;
68010;SDS011;54794;48.348;7.878;2023-04-01T03:23:59;2.97;;;0.40;;
68010;SDS011;54794;48.348;7.878;2023-04-01T03:26:26;1.83;;;0.30;;
68010;SDS011;54794;48.348;7.878;2023-04-01T03:28:53;1.13;;;0.40;;
68010;SDS011;54794;48.348;7.878;2023-04-01T03:31:21;1.23;;;0.30;;
68010;SDS011;54794;48.348;7.878;2023-04-01T03:36:16;2.38;;;0.40;;
68010;SDS011;54794;48.348;7.878;2023-04-01T03:38:44;1.73;;;0.43;;
68010;SDS011;54794;48.348;7.878;2023-04-01T03:41:11;1.45;;;0.30;;
68010;SDS011;54794;48.348;7.878;2023-04-01T03:43:41;0.93;;;0.30;;
68010;SDS011;54794;48.348;7.878;2023-04-01T03:48:35;0.35;;;0.10;;
68010;SDS011;54794;48.348;7.878;2023-04-01T03:51:06;1.17;;;0.20;;
68010;SDS011;54794;48.348;7.878;2023-04-01T03:53:34;0.35;;;0.13;;
68010;SDS011;54794;48.348;7.878;2023-04-01T03:56:04;0.63;;;0.20;;
68010;SDS011;54794;48.348;7.878;2023-04-01T03:58:34;0.93;;;0.10;;
68010;SDS011;54794;48.348;7.878;2023-04-01T04:01:02;1.27;;;0.20;;
68010;SDS011;54794;48.348;7.878;2023-04-01T04:03:29;0.70;;;0.10;;
68010;SDS011;54794;48.348;7.878;2023-04-01T04:05:56;0.98;;;0.10;;
68010;SDS011;54794;48.348;7.878;2023-04-01T04:08:23;0.55;;;0.00;;
68010;SDS011;54794;48.348;7.878;2023-04-01T04:10:56;2.03;;;0.40;;
68010;SDS011;54794;48.348;7.878;2023-04-01T04:13:23;1.42;;;0.30;;
68010;SDS011;54794;48.348;7.878;2023-04-01T04:15:50;2.70;;;0.40;;
68010;SDS011;54794;48.348;7.878;2023-04-01T04:18:17;0.77;;;0.40;;
68010;SDS011;54794;48.348;7.878;2023-04-01T04:20:45;2.67;;;0.55;;
68010;SDS011;54794;48.348;7.878;2023-04-01T04:23:14;5.68;;;0.68;;
68010;SDS011;54794;48.348;7.878;2023-04-01T04:25:41;4.63;;;0.70;;
68010;SDS011;54794;48.348;7.878;2023-04-01T04:28:20;0.80;;;0.30;;
68010;SDS011;54794;48.348;7.878;2023-04-01T04:30:47;2.60;;;0.60;;
68010;SDS011;54794;48.348;7.878;2023-04-01T04:33:13;1.98;;;0.60;;
68010;SDS011;54794;48.348;7.878;2023-04-01T04:35:40;2.75;;;0.35;;
68010;SDS011;54794;48.348;7.878;2023-04-01T04:38:07;2.10;;;0.30;;
68010;SDS011;54794;48.348;7.878;2023-04-01T04:40:35;2.85;;;0.40;;
68010;SDS011;54794;48.348;7.878;2023-04-01T04:43:03;1.50;;;0.35;;
68010;SDS011;54794;48.348;7.878;2023-04-01T04:45:30;0.98;;;0.45;;
68010;SDS011;54794;48.348;7.878;2023-04-01T04:47:58;2.45;;;0.38;;
68010;SDS011;54794;48.348;7.878;2023-04-01T04:50:25;1.52;;;0.35;;
68010;SDS011;54794;48.348;7.878;2023-04-01T04:52:52;0.50;;;0.10;;
68010;SDS011;54794;48.348;7.878;2023-04-01T04:57:47;2.53;;;0.25;;
68010;SDS011;54794;48.348;7.878;2023-04-01T05:00:14;2.03;;;0.30;;
68010;SDS011;54794;48.348;7.878;2023-04-01T05:02:41;0.73;;;0.20;;
68010;SDS011;54794;48.348;7.878;2023-04-01T05:05:08;0.82;;;0.30;;
68010;SDS011;54794;48.348;7.878;2023-04-01T05:07:36;0.63;;;0.20;;
68010;SDS011;54794;48.348;7.878;2023-04-01T05:10:03;2.10;;;0.20;;
68010;SDS011;54794;48.348;7.878;2023-04-01T05:12:31;1.70;;;0.28;;
68010;SDS011;54794;48.348;7.878;2023-04-01T05:15:03;3.85;;;0.52;;
68010;SDS011;54794;48.348;7.878;2023-04-01T05:17:31;1.60;;;0.30;;
68010;SDS011;54794;48.348;7.878;2023-04-01T05:19:58;2.08;;;0.40;;
68010;SDS011;54794;48.348;7.878;2023-04-01T05:22:25;2.28;;;0.40;;
68010;SDS011;54794;48.348;7.878;2023-04-01T05:24:52;2.45;;;0.50;;
68010;SDS011;54794;48.348;7.878;2023-04-01T05:27:19;1.30;;;0.47;;
68010;SDS011;54794;48.348;7.878;2023-04-01T05:29:46;1.63;;;0.70;;
68010;SDS011;54794;48.348;7.878;2023-04-01T05:32:13;1.27;;;0.40;;
68010;SDS011;54794;48.348;7.878;2023-04-01T05:34:41;2.10;;;0.50;;
68010;SDS011;54794;48.348;7.878;2023-04-01T05:37:08;3.33;;;0.60;;
68010;SDS011;54794;48.348;7.878;2023-04-01T05:42:05;2.20;;;0.50;;
68010;SDS011;54794;48.348;7.878;2023-04-01T05:44:34;3.25;;;0.60;;
68010;SDS011;54794;48.348;7.878;2023-04-01T05:47:02;3.42;;;0.50;;
68010;SDS011;54794;48.348;7.878;2023-04-01T05:49:30;3.35;;;0.50;;
68010;SDS011;54794;48.348;7.878;2023-04-01T05:51:59;2.30;;;0.45;;
68010;SDS011;54794;48.348;7.878;2023-04-01T05:54:26;2.90;;;0.63;;
68010;SDS011;54794;48.348;7.878;2023-04-01T05:56:53;1.00;;;0.30;;
68010;SDS011;54794;48.348;7.878;2023-04-01T05:59:20;3.15;;;0.50;;
68010;SDS011;54794;48.348;7.878;2023-04-01T06:01:46;2.03;;;0.50;;
68010;SDS011;54794;48.348;7.878;2023-04-01T06:04:14;1.35;;;0.43;;
68010;SDS011;54794;48.348;7.878;2023-04-01T06:06:43;3.55;;;0.50;;
68010;SDS011;54794;48.348;7.878;2023-04-01T06:29:16;1.10;;;0.50;;
68010;SDS011;54794;48.348;7.878;2023-04-01T06:38:10;3.63;;;0.75;;
68010;SDS011;54794;48.348;7.878;2023-04-01T06:46:19;2.37;;;0.60;;
68010;SDS011;54794;48.348;7.878;2023-04-01T06:52:11;0.90;;;0.30;;
68010;SDS011;54794;48.348;7.878;2023-04-01T06:54:47;2.95;;;0.50;;
68010;SDS011;54794;48.348;7.878;2023-04-01T06:57:28;1.90;;;0.40;;
68010;SDS011;54794;48.348;7.878;2023-04-01T07:00:00;3.30;;;0.70;;
68010;SDS011;54794;48.348;7.878;2023-04-01T07:02:48;3.70;;;0.40;;
68010;SDS011;54794;48.348;7.878;2023-04-01T07:05:34;1.83;;;0.57;;
68010;SDS011;54794;48.348;7.878;2023-04-01T07:08:06;2.38;;;0.47;;
68010;SDS011;54794;48.348;7.878;2023-04-01T07:10:43;2.40;;;0.47;;
68010;SDS011;54794;48.348;7.878;2023-04-01T07:13:44;1.95;;;0.40;;
68010;SDS011;54794;48.348;7.878;2023-04-01T07:16:27;1.23;;;0.50;;
68010;SDS011;54794;48.348;7.878;2023-04-01T07:22:23;2.10;;;0.50;;
68010;SDS011;54794;48.348;7.878;2023-04-01T07:25:12;0.88;;;0.30;;
68010;SDS011;54794;48.348;7.878;2023-04-01T07:27:44;1.38;;;0.47;;
68010;SDS011;54794;48.348;7.878;2023-04-01T07:30:16;1.80;;;0.50;;
68010;SDS011;54794;48.348;7.878;2023-04-01T07:36:06;1.77;;;0.38;;
68010;SDS011;54794;48.348;7.878;2023-04-01T07:39:01;1.45;;;0.40;;
68010;SDS011;54794;48.348;7.878;2023-04-01T07:42:00;2.22;;;0.50;;
68010;SDS011;54794;48.348;7.878;2023-04-01T07:59:17;1.23;;;0.47;;
68010;SDS011;54794;48.348;7.878;2023-04-01T08:02:06;1.00;;;0.30;;
68010;SDS011;54794;48.348;7.878;2023-04-01T08:16:37;0.75;;;0.20;;
68010;SDS011;54794;48.348;7.878;2023-04-01T08:22:42;1.90;;;0.32;;
68010;SDS011;54794;48.348;7.878;2023-04-01T08:25:19;1.42;;;0.40;;
68010;SDS011;54794;48.348;7.878;2023-04-01T08:28:13;1.67;;;0.30;;
68010;SDS011;54794;48.348;7.878;2023-04-01T08:30:58;2.28;;;0.25;;
68010;SDS011;54794;48.348;7.878;2023-04-01T08:33:33;1.65;;;0.22;;
68010;SDS011;54794;48.348;7.878;2023-04-01T08:36:19;0.93;;;0.30;;
68010;SDS011;54794;48.348;7.878;2023-04-01T08:38:55;1.35;;;0.30;;
68010;SDS011;54794;48.348;7.878;2023-04-01T08:41:41;2.05;;;0.43;;
68010;SDS011;54794;48.348;7.878;2023-04-01T08:55:59;2.05;;;0.50;;
68010;SDS011;54794;48.348;7.878;2023-04-01T09:10:52;1.65;;;0.40;;
68010;SDS011;54794;48.348;7.878;2023-04-01T09:19:47;0.95;;;0.50;;
68010;SDS011;54794;48.348;7.878;2023-04-01T09:25:38;1.95;;;0.40;;
68010;SDS011;54794;48.348;7.878;2023-04-01T09:40:56;1.52;;;0.43;;
68010;SDS011;54794;48.348;7.878;2023-04-01T09:43:53;0.82;;;0.38;;
68010;SDS011;54794;48.348;7.878;2023-04-01T09:50:31;0.98;;;0.32;;
68010;SDS011;54794;48.348;7.878;2023-04-01T10:14:15;1.27;;;0.30;;
68010;SDS011;54794;48.348;7.878;2023-04-01T10:28:29;1.30;;;0.25;;
68010;SDS011;54794;48.348;7.878;2023-04-01T10:40:25;1.55;;;0.30;;
68010;SDS011;54794;48.348;7.878;2023-04-01T11:16:36;2.33;;;0.60;;
68010;SDS011;54794;48.348;7.878;2023-04-01T11:22:21;0.98;;;0.32;;
68010;SDS011;54794;48.348;7.878;2023-04-01T11:31:35;0.45;;;0.22;;
68010;SDS011;54794;48.348;7.878;2023-04-01T11:40:39;0.68;;;0.20;;
68010;SDS011;54794;48.348;7.878;2023-04-01T11:46:11;1.17;;;0.40;;
68010;SDS011;54794;48.348;7.878;2023-04-01T11:48:52;1.17;;;0.22;;
68010;SDS011;54794;48.348;7.878;2023-04-01T11:51:33;0.82;;;0.20;;
68010;SDS011;54794;48.348;7.878;2023-04-01T12:10:25;1.00;;;0.30;;
68010;SDS011;54794;48.348;7.878;2023-04-01T12:19:12;0.67;;;0.20;;
68010;SDS011;54794;48.348;7.878;2023-04-01T12:22:11;0.93;;;0.25;;
68010;SDS011;54794;48.348;7.878;2023-04-01T12:31:19;0.93;;;0.40;;
68010;SDS011;54794;48.348;7.878;2023-04-01T12:34:33;1.65;;;0.30;;
68010;SDS011;54794;48.348;7.878;2023-04-01T12:37:13;1.23;;;0.40;;
68010;SDS011;54794;48.348;7.878;2023-04-01T12:45:53;0.30;;;0.20;;
68010;SDS011;54794;48.348;7.878;2023-04-01T12:54:46;1.30;;;0.30;;
68010;SDS011;54794;48.348;7.878;2023-04-01T13:00:35;0.63;;;0.38;;
68010;SDS011;54794;48.348;7.878;2023-04-01T13:06:27;0.80;;;0.40;;
68010;SDS011;54794;48.348;7.878;2023-04-01T13:23:27;0.47;;;0.22;;
68010;SDS011;54794;48.348;7.878;2023-04-01T13:29:18;1.33;;;0.30;;
68010;SDS011;54794;48.348;7.878;2023-04-01T13:37:37;0.70;;;0.40;;
68010;SDS011;54794;48.348;7.878;2023-04-01T13:40:50;1.63;;;0.38;;
68010;SDS011;54794;48.348;7.878;2023-04-01T13:47:12;0.68;;;0.30;;
68010;SDS011;54794;48.348;7.878;2023-04-01T13:50:32;0.65;;;0.30;;
68010;SDS011;54794;48.348;7.878;2023-04-01T14:08:26;0.60;;;0.20;;
68010;SDS011;54794;48.348;7.878;2023-04-01T14:20:25;0.32;;;0.20;;
68010;SDS011;54794;48.348;7.878;2023-04-01T14:32:09;0.63;;;0.45;;
68010;SDS011;54794;48.348;7.878;2023-04-01T14:43:44;0.82;;;0.47;;
68010;SDS011;54794;48.348;7.878;2023-04-01T14:46:40;0.90;;;0.40;;
68010;SDS011;54794;48.348;7.878;2023-04-01T14:49:50;0.40;;;0.40;;
68010;SDS011;54794;48.348;7.878;2023-04-01T14:55:00;2.55;;;0.50;;
68010;SDS011;54794;48.348;7.878;2023-04-01T14:57:59;1.48;;;0.75;;
68010;SDS011;54794;48.348;7.878;2023-04-01T15:00:46;1.67;;;0.90;;
68010;SDS011;54794;48.348;7.878;2023-04-01T15:29:17;0.95;;;0.60;;
68010;SDS011;54794;48.348;7.878;2023-04-01T15:32:16;0.90;;;0.50;;
68010;SDS011;54794;48.348;7.878;2023-04-01T15:38:11;0.90;;;0.50;;
68010;SDS011;54794;48.348;7.878;2023-04-01T15:40:49;1.27;;;0.50;;
68010;SDS011;54794;48.348;7.878;2023-04-01T15:43:40;1.08;;;0.50;;
68010;SDS011;54794;48.348;7.878;2023-04-01T15:55:37;0.68;;;0.20;;
68010;SDS011;54794;48.348;7.878;2023-04-01T15:58:32;0.93;;;0.32;;
68010;SDS011;54794;48.348;7.878;2023-04-01T16:01:54;0.82;;;0.20;;
68010;SDS011;54794;48.348;7.878;2023-04-01T16:04:51;0.45;;;0.22;;
68010;SDS011;54794;48.348;7.878;2023-04-01T16:16:14;0.55;;;0.30;;
68010;SDS011;54794;48.348;7.878;2023-04-01T16:19:08;0.88;;;0.40;;
68010;SDS011;54794;48.348;7.878;2023-04-01T16:22:08;1.58;;;0.40;;
68010;SDS011;54794;48.348;7.878;2023-04-01T16:38:59;0.28;;;0.20;;
68010;SDS011;54794;48.348;7.878;2023-04-01T16:41:48;0.70;;;0.25;;
68010;SDS011;54794;48.348;7.878;2023-04-01T16:45:21;0.35;;;0.13;;
68010;SDS011;54794;48.348;7.878;2023-04-01T16:47:39;0.35;;;0.17;;
68010;SDS011;54794;48.348;7.878;2023-04-01T16:50:27;0.40;;;0.20;;
68010;SDS011;54794;48.348;7.878;2023-04-01T16:55:47;0.93;;;0.28;;
68010;SDS011;54794;48.348;7.878;2023-04-01T16:58:33;0.20;;;0.10;;
68010;SDS011;54794;48.348;7.878;2023-04-01T17:01:25;2.22;;;0.32;;
68010;SDS011;54794;48.348;7.878;2023-04-01T17:04:06;0.35;;;0.20;;
68010;SDS011;54794;48.348;7.878;2023-04-01T17:06:48;0.60;;;0.30;;
68010;SDS011;54794;48.348;7.878;2023-04-01T17:12:01;0.60;;;0.20;;
68010;SDS011;54794;48.348;7.878;2023-04-01T17:14:43;0.93;;;0.30;;
68010;SDS011;54794;48.348;7.878;2023-04-01T17:23:52;0.70;;;0.40;;
68010;SDS011;54794;48.348;7.878;2023-04-01T17:27:55;0.60;;;0.30;;
68010;SDS011;54794;48.348;7.878;2023-04-01T17:30:17;1.20;;;0.60;;
68010;SDS011;54794;48.348;7.878;2023-04-01T17:38:57;0.40;;;0.30;;
68010;SDS011;54794;48.348;7.878;2023-04-01T17:44:53;0.93;;;0.52;;
68010;SDS011;54794;48.348;7.878;2023-04-01T17:58:58;0.70;;;0.47;;
68010;SDS011;54794;48.348;7.878;2023-04-01T18:10:43;1.73;;;0.60;;
68010;SDS011;54794;48.348;7.878;2023-04-01T18:19:40;1.20;;;0.52;;
68010;SDS011;54794;48.348;7.878;2023-04-01T18:22:21;1.98;;;0.60;;
68010;SDS011;54794;48.348;7.878;2023-04-01T18:25:13;1.30;;;0.70;;
68010;SDS011;54794;48.348;7.878;2023-04-01T18:28:25;1.73;;;0.82;;
68010;SDS011;54794;48.348;7.878;2023-04-01T18:30:58;1.60;;;0.80;;
68010;SDS011;54794;48.348;7.878;2023-04-01T18:33:53;1.40;;;0.82;;
68010;SDS011;54794;48.348;7.878;2023-04-01T18:36:44;1.70;;;0.90;;
68010;SDS011;54794;48.348;7.878;2023-04-01T18:39:33;1.92;;;1.35;;
68010;SDS011;54794;48.348;7.878;2023-04-01T18:42:08;2.58;;;1.63;;
68010;SDS011;54794;48.348;7.878;2023-04-01T18:44:50;2.50;;;1.60;;
68010;SDS011;54794;48.348;7.878;2023-04-01T18:48:07;2.95;;;1.58;;
68010;SDS011;54794;48.348;7.878;2023-04-01T18:51:11;2.75;;;1.50;;
68010;SDS011;54794;48.348;7.878;2023-04-01T18:54:23;1.85;;;1.13;;
68010;SDS011;54794;48.348;7.878;2023-04-01T18:57:21;2.00;;;1.13;;
68010;SDS011;54794;48.348;7.878;2023-04-01T19:00:02;2.40;;;1.20;;
68010;SDS011;54794;48.348;7.878;2023-04-01T19:05:49;0.75;;;0.57;;
68010;SDS011;54794;48.348;7.878;2023-04-01T19:08:25;0.40;;;0.32;;
68010;SDS011;54794;48.348;7.878;2023-04-01T19:11:17;1.30;;;0.50;;
68010;SDS011;54794;48.348;7.878;2023-04-01T19:14:19;0.85;;;0.38;;
68010;SDS011;54794;48.348;7.878;2023-04-01T19:22:49;0.25;;;0.15;;
68010;SDS011;54794;48.348;7.878;2023-04-01T19:26:00;1.23;;;0.30;;
68010;SDS011;54794;48.348;7.878;2023-04-01T19:34:29;0.98;;;0.30;;
68010;SDS011;54794;48.348;7.878;2023-04-01T19:45:54;0.57;;;0.40;;
68010;SDS011;54794;48.348;7.878;2023-04-01T19:57:57;1.25;;;0.30;;
68010;SDS011;54794;48.348;7.878;2023-04-01T20:00:50;0.35;;;0.20;;
68010;SDS011;54794;48.348;7.878;2023-04-01T20:15:47;0.25;;;0.10;;
68010;SDS011;54794;48.348;7.878;2023-04-01T20:24:29;0.60;;;0.30;;
68010;SDS011;54794;48.348;7.878;2023-04-01T20:47:56;1.02;;;0.30;;
68010;SDS011;54794;48.348;7.878;2023-04-01T20:50:51;0.50;;;0.30;;
68010;SDS011;54794;48.348;7.878;2023-04-01T20:53:43;0.73;;;0.38;;
68010;SDS011;54794;48.348;7.878;2023-04-01T21:02:30;10.13;;;4.15;;
68010;SDS011;54794;48.348;7.878;2023-04-01T21:23:39;1.55;;;0.90;;
68010;SDS011;54794;48.348;7.878;2023-04-01T21:39:08;5.65;;;2.70;;
68010;SDS011;54794;48.348;7.878;2023-04-01T21:42:02;4.40;;;1.85;;
68010;SDS011;54794;48.348;7.878;2023-04-01T21:50:55;1.13;;;0.50;;
68010;SDS011;54794;48.348;7.878;2023-04-01T21:54:03;1.10;;;0.55;;
68010;SDS011;54794;48.348;7.878;2023-04-01T22:00:19;0.50;;;0.30;;
68010;SDS011;54794;48.348;7.878;2023-04-01T22:05:58;0.55;;;0.30;;
68010;SDS011;54794;48.348;7.878;2023-04-01T22:08:46;3.15;;;1.42;;
68010;SDS011;54794;48.348;7.878;2023-04-01T22:11:45;13.32;;;5.53;;
68010;SDS011;54794;48.348;7.878;2023-04-01T22:14:32;9.70;;;4.45;;
68010;SDS011;54794;48.348;7.878;2023-04-01T22:17:05;4.13;;;2.10;;
68010;SDS011;54794;48.348;7.878;2023-04-01T22:22:45;1.67;;;0.90;;
68010;SDS011;54794;48.348;7.878;2023-04-01T22:25:35;0.85;;;0.50;;
68010;SDS011;54794;48.348;7.878;2023-04-01T22:28:38;1.25;;;0.70;;
68010;SDS011;54794;48.348;7.878;2023-04-01T22:31:54;0.50;;;0.30;;
68010;SDS011;54794;48.348;7.878;2023-04-01T22:34:34;0.77;;;0.20;;
68010;SDS011;54794;48.348;7.878;2023-04-01T22:40:47;1.27;;;0.98;;
68010;SDS011;54794;48.348;7.878;2023-04-01T22:43:49;0.77;;;0.57;;
68010;SDS011;54794;48.348;7.878;2023-04-01T22:51:56;2.00;;;1.40;;
68010;SDS011;54794;48.348;7.878;2023-04-01T22:54:52;1.27;;;1.02;;
68010;SDS011;54794;48.348;7.878;2023-04-01T22:57:40;1.60;;;1.30;;
68010;SDS011;54794;48.348;7.878;2023-04-01T23:03:23;0.50;;;0.30;;
68010;SDS011;54794;48.348;7.878;2023-04-01T23:06:01;0.20;;;0.20;;
68010;SDS011;54794;48.348;7.878;2023-04-01T23:12:07;0.50;;;0.17;;
68010;SDS011;54794;48.348;7.878;2023-04-01T23:14:47;0.68;;;0.20;;
68010;SDS011;54794;48.348;7.878;2023-04-01T23:17:24;0.10;;;0.10;;
68010;SDS011;54794;48.348;7.878;2023-04-01T23:20:17;0.10;;;0.10;;
68010;SDS011;54794;48.348;7.878;2023-04-01T23:28:31;0.40;;;0.30;;
68010;SDS011;54794;48.348;7.878;2023-04-01T23:31:40;0.40;;;0.20;;
68010;SDS011;54794;48.348;7.878;2023-04-01T23:36:59;0.30;;;0.20;;
68010;SDS011;54794;48.348;7.878;2023-04-01T23:39:39;0.52;;;0.20;;
68010;SDS011;54794;48.348;7.878;2023-04-01T23:44:57;0.55;;;0.30;;
68010;SDS011;54794;48.348;7.878;2023-04-01T23:47:30;0.68;;;0.30;;
68010;SDS011;54794;48.348;7.878;2023-04-01T23:50:02;0.40;;;0.20;;
68010;SDS011;54794;48.348;7.878;2023-04-01T23:52:47;0.20;;;0.17;;
68010;SDS011;54794;48.348;7.878;2023-04-01T23:55:27;0.35;;;0.10;;
